createdAt,value
2023-03-22T00:00:14.334Z,67.72
2023-03-22T00:03:01.446Z,57.67
2023-03-22T00:05:30.516Z,64.63
2023-03-22T00:08:00.567Z,62.05
2023-03-22T00:10:31.273Z,69.90
2023-03-22T00:12:59.256Z,59.95
2023-03-22T00:15:29.506Z,63.47
2023-03-22T00:17:59.009Z,61.67
2023-03-22T00:20:30.637Z,59.72
2023-03-22T00:22:58.288Z,58.55
2023-03-22T00:25:26.345Z,62.58
2023-03-22T00:27:53.882Z,62.30
2023-03-22T00:30:21.188Z,62.42
2023-03-22T00:32:49.401Z,60.38
2023-03-22T00:35:16.454Z,64.18
2023-03-22T00:37:43.632Z,58.92
2023-03-22T00:40:14.691Z,59.70
2023-03-22T00:42:43.411Z,56.58
2023-03-22T00:45:11.945Z,55.30
2023-03-22T00:47:39.449Z,49.40
2023-03-22T00:50:07.522Z,51.10
2023-03-22T00:52:35.097Z,62.35
2023-03-22T00:55:02.330Z,52.47
2023-03-22T00:57:29.676Z,59.80
2023-03-22T00:59:58.550Z,54.78
2023-03-22T01:02:29.729Z,56.08
2023-03-22T01:04:57.364Z,58.10
2023-03-22T01:07:24.909Z,53.22
2023-03-22T01:09:52.419Z,57.70
2023-03-22T01:12:20.381Z,59.13
2023-03-22T01:14:47.754Z,63.75
2023-03-22T01:17:16.015Z,67.93
2023-03-22T01:19:43.225Z,59.20
2023-03-22T01:22:10.829Z,60.38
2023-03-22T01:24:37.887Z,64.35
2023-03-22T01:27:05.906Z,69.57
2023-03-22T01:29:33.122Z,71.63
2023-03-22T01:32:00.372Z,65.13
2023-03-22T01:34:27.708Z,66.32
2023-03-22T01:36:55.559Z,69.15
2023-03-22T01:39:22.991Z,66.10
2023-03-22T01:41:55.910Z,65.40
2023-03-22T01:44:24.040Z,64.97
2023-03-22T01:46:54.081Z,68.10
2023-03-22T01:49:28.654Z,68.30
2023-03-22T01:51:58.843Z,67.80
2023-03-22T01:54:54.117Z,66.10
2023-03-22T01:57:47.629Z,65.80
2023-03-22T02:00:21.156Z,65.15
2023-03-22T02:03:11.936Z,62.58
2023-03-22T02:05:44.658Z,63.22
2023-03-22T02:08:15.061Z,69.15
2023-03-22T02:11:05.846Z,61.10
2023-03-22T02:13:53.803Z,62.53
2023-03-22T02:16:40.703Z,68.55
2023-03-22T02:19:45.786Z,65.03
2023-03-22T02:23:02.049Z,69.10
2023-03-22T02:25:41.279Z,67.13
2023-03-22T02:28:29.748Z,64.07
2023-03-22T02:31:09.363Z,69.85
2023-03-22T02:33:54.582Z,72.22
2023-03-22T02:36:46.623Z,64.82
2023-03-22T02:42:12.216Z,73.03
2023-03-22T02:44:50.014Z,69.28
2023-03-22T02:47:34.332Z,73.57
2023-03-22T02:50:10.473Z,72.28
2023-03-22T02:52:40.649Z,77.30
2023-03-22T02:55:32.498Z,78.07
2023-03-22T02:58:21.695Z,70.93
2023-03-22T03:00:54.838Z,74.00
2023-03-22T03:03:25.749Z,77.40
2023-03-22T03:06:00.871Z,73.93
2023-03-22T03:08:30.718Z,78.43
2023-03-22T03:13:26.972Z,66.78
2023-03-22T03:16:00.164Z,76.95
2023-03-22T03:18:47.190Z,71.65
2023-03-22T03:21:34.821Z,80.70
2023-03-22T03:24:23.298Z,74.25
2023-03-22T03:27:31.560Z,77.00
2023-03-22T03:30:02.597Z,79.80
2023-03-22T03:32:38.537Z,78.85
2023-03-22T03:35:41.016Z,78.30
2023-03-22T03:38:18.745Z,83.82
2023-03-22T03:40:51.927Z,73.13
2023-03-22T03:43:22.300Z,83.57
2023-03-22T03:45:51.981Z,75.70
2023-03-22T03:48:22.404Z,85.93
2023-03-22T03:50:52.704Z,77.07
2023-03-22T03:53:20.023Z,82.35
2023-03-22T03:55:47.578Z,80.90
2023-03-22T03:58:16.768Z,74.97
2023-03-22T04:00:46.595Z,75.95
2023-03-22T04:03:46.647Z,76.95
2023-03-22T04:06:34.680Z,70.88
2023-03-22T04:09:08.456Z,68.43
2023-03-22T04:11:40.423Z,81.22
2023-03-22T04:14:07.464Z,100.97
2023-03-22T04:16:34.714Z,92.50
2023-03-22T04:19:02.547Z,78.20
2023-03-22T04:21:29.854Z,92.97
2023-03-22T04:23:58.502Z,88.28
2023-03-22T04:26:27.813Z,102.68
2023-03-22T04:29:16.727Z,68.97
2023-03-22T04:31:48.914Z,95.57
2023-03-22T04:34:21.571Z,69.22
2023-03-22T04:37:02.712Z,68.40
2023-03-22T04:39:59.602Z,107.78
2023-03-22T04:42:37.243Z,93.07
2023-03-22T04:45:13.790Z,104.50
2023-03-22T04:47:44.208Z,83.07
2023-03-22T04:50:11.979Z,82.75
2023-03-22T04:52:50.049Z,77.85
2023-03-22T04:55:17.481Z,84.65
2023-03-22T04:57:45.914Z,78.80
2023-03-22T05:00:13.369Z,75.30
2023-03-22T05:02:41.818Z,76.25
2023-03-22T05:05:17.042Z,82.60
2023-03-22T05:07:45.824Z,79.05
2023-03-22T05:10:12.748Z,91.80
2023-03-22T05:12:41.208Z,78.45
2023-03-22T05:15:16.828Z,69.57
2023-03-22T05:17:44.850Z,68.95
2023-03-22T05:20:11.982Z,63.80
2023-03-22T05:22:41.454Z,68.28
2023-03-22T05:25:10.993Z,59.90
2023-03-22T05:27:40.784Z,63.45
2023-03-22T05:30:34.029Z,57.85
2023-03-22T05:33:09.514Z,55.83
2023-03-22T05:35:42.295Z,66.47
2023-03-22T05:38:10.711Z,65.15
2023-03-22T05:40:42.086Z,66.45
2023-03-22T05:43:09.852Z,56.58
2023-03-22T05:45:41.639Z,56.83
2023-03-22T05:48:22.012Z,54.03
2023-03-22T05:50:49.541Z,60.00
2023-03-22T05:53:17.704Z,55.30
2023-03-22T05:56:01.950Z,58.97
2023-03-22T05:58:32.635Z,61.47
2023-03-22T06:01:06.134Z,58.78
2023-03-22T06:03:59.481Z,62.92
2023-03-22T06:06:34.581Z,54.97
2023-03-22T06:09:16.743Z,53.58
2023-03-22T06:11:46.838Z,51.53
2023-03-22T06:14:15.975Z,56.13
2023-03-22T06:17:03.387Z,48.08
2023-03-22T06:19:31.375Z,49.17
2023-03-22T06:22:02.035Z,49.28
2023-03-22T06:24:29.388Z,52.50
2023-03-22T06:26:56.379Z,49.83
2023-03-22T06:29:23.881Z,48.25
2023-03-22T06:31:54.613Z,46.50
2023-03-22T06:34:25.380Z,48.85
2023-03-22T06:39:37.101Z,44.55
2023-03-22T06:42:04.071Z,41.15
2023-03-22T06:44:31.917Z,51.13
2023-03-22T06:47:13.105Z,41.47
2023-03-22T06:49:47.701Z,39.38
2023-03-22T06:52:19.724Z,41.42
2023-03-22T06:54:47.465Z,41.78
2023-03-22T06:57:14.715Z,37.67
2023-03-22T06:59:42.732Z,39.80
2023-03-22T07:02:12.325Z,33.88
2023-03-22T07:04:42.600Z,32.97
2023-03-22T07:07:09.618Z,29.83
2023-03-22T07:09:36.897Z,26.88
2023-03-22T07:12:05.058Z,25.38
2023-03-22T07:14:33.056Z,25.45
2023-03-22T07:17:19.031Z,26.95
2023-03-22T07:19:46.371Z,24.90
2023-03-22T07:22:14.240Z,26.52
2023-03-22T07:24:55.721Z,22.67
2023-03-22T07:27:24.807Z,22.35
2023-03-22T07:29:52.622Z,19.83
2023-03-22T07:32:19.973Z,22.05
2023-03-22T07:35:01.656Z,23.15
2023-03-22T07:37:29.220Z,19.33
2023-03-22T07:39:56.438Z,23.58
2023-03-22T07:42:26.360Z,23.17
2023-03-22T07:45:12.164Z,20.13
2023-03-22T07:47:43.029Z,18.50
2023-03-22T07:50:33.549Z,21.85
2023-03-22T07:55:32.483Z,20.02
2023-03-22T07:57:59.750Z,18.92
2023-03-22T08:00:27.137Z,20.85
2023-03-22T08:03:14.146Z,20.58
2023-03-22T08:06:08.184Z,22.92
2023-03-22T08:08:37.390Z,28.67
2023-03-22T08:11:07.048Z,21.77
2023-03-22T08:13:34.400Z,21.27
2023-03-22T08:16:01.856Z,21.27
2023-03-22T08:18:31.158Z,20.65
2023-03-22T08:21:00.214Z,22.58
2023-03-22T08:23:40.952Z,21.77
2023-03-22T08:26:12.294Z,22.10
2023-03-22T08:28:39.461Z,21.65
2023-03-22T08:31:15.486Z,25.20
2023-03-22T08:33:44.723Z,24.70
2023-03-22T08:36:16.498Z,21.48
2023-03-22T08:38:53.264Z,25.35
2023-03-22T08:41:26.873Z,25.73
2023-03-22T08:43:53.976Z,22.20
2023-03-22T08:46:21.208Z,22.65
2023-03-22T08:48:51.668Z,19.38
2023-03-22T08:51:25.659Z,19.38
2023-03-22T08:54:09.822Z,23.77
2023-03-22T08:56:55.741Z,18.60
2023-03-22T08:59:45.637Z,22.45
2023-03-22T09:02:33.384Z,22.23
2023-03-22T09:05:01.641Z,20.33
2023-03-22T09:07:29.139Z,21.77
2023-03-22T09:10:13.219Z,23.13
2023-03-22T09:12:44.231Z,22.95
2023-03-22T09:15:11.392Z,26.63
2023-03-22T09:17:41.614Z,23.45
2023-03-22T09:20:12.814Z,21.45
2023-03-22T09:22:42.722Z,22.85
2023-03-22T09:25:12.995Z,20.38
2023-03-22T09:30:11.295Z,19.67
2023-03-22T09:32:40.602Z,18.67
2023-03-22T09:35:08.916Z,19.80
2023-03-22T09:37:45.636Z,19.33
2023-03-22T09:40:13.731Z,21.30
2023-03-22T09:42:46.386Z,16.92
2023-03-22T09:45:41.143Z,19.58
2023-03-22T09:48:18.531Z,19.63
2023-03-22T09:50:49.486Z,20.08
2023-03-22T09:53:17.868Z,21.13
2023-03-22T09:55:55.376Z,20.90
2023-03-22T09:58:31.051Z,19.02
2023-03-22T10:01:02.730Z,19.90
2023-03-22T10:03:32.950Z,16.70
2023-03-22T10:06:12.368Z,17.48
2023-03-22T10:09:14.048Z,16.30
2023-03-22T10:11:49.653Z,19.33
2023-03-22T10:14:39.398Z,17.35
2023-03-22T10:17:12.131Z,25.05
2023-03-22T10:19:55.358Z,18.42
2023-03-22T10:22:30.150Z,18.70
2023-03-22T10:25:00.348Z,17.73
2023-03-22T10:27:29.765Z,17.48
2023-03-22T10:30:23.200Z,16.35
2023-03-22T10:33:01.726Z,20.38
2023-03-22T10:35:30.779Z,18.80
2023-03-22T10:38:01.720Z,21.20
2023-03-22T10:40:32.956Z,20.20
2023-03-22T10:43:11.745Z,18.55
2023-03-22T10:45:40.388Z,18.38
2023-03-22T10:48:16.713Z,18.10
2023-03-22T10:50:45.930Z,17.45
2023-03-22T10:53:31.633Z,17.98
2023-03-22T10:55:59.216Z,17.42
2023-03-22T10:58:31.656Z,19.40
2023-03-22T11:01:25.496Z,16.60
2023-03-22T11:03:57.658Z,18.33
2023-03-22T11:06:29.962Z,18.20
2023-03-22T11:09:11.632Z,16.98
2023-03-22T11:11:48.367Z,20.27
2023-03-22T11:14:21.668Z,18.15
2023-03-22T11:16:53.858Z,16.50
2023-03-22T11:19:32.231Z,15.25
2023-03-22T11:22:00.977Z,16.13
2023-03-22T11:24:31.117Z,15.13
2023-03-22T11:27:19.364Z,15.88
2023-03-22T11:29:49.739Z,18.38
2023-03-22T11:33:11.316Z,17.03
2023-03-22T11:35:39.421Z,17.65
2023-03-22T11:38:07.682Z,16.83
2023-03-22T11:40:36.958Z,18.52
2023-03-22T11:43:10.326Z,17.92
2023-03-22T11:45:41.804Z,21.48
2023-03-22T11:48:15.771Z,16.45
2023-03-22T11:50:44.629Z,16.80
2023-03-22T11:53:17.010Z,15.73
2023-03-22T11:55:45.312Z,18.58
2023-03-22T11:58:28.332Z,18.50
2023-03-22T12:01:01.006Z,17.50
2023-03-22T12:03:36.731Z,16.50
2023-03-22T12:06:18.939Z,17.52
2023-03-22T12:08:54.674Z,18.15
2023-03-22T12:11:29.512Z,14.82
2023-03-22T12:14:09.584Z,18.42
2023-03-22T12:16:47.777Z,15.73
2023-03-22T12:19:17.953Z,16.88
2023-03-22T12:21:46.399Z,15.95
2023-03-22T12:24:30.838Z,15.25
2023-03-22T12:27:04.469Z,17.58
2023-03-22T12:29:32.269Z,15.23
2023-03-22T12:32:07.167Z,14.77
2023-03-22T12:34:43.676Z,14.35
2023-03-22T12:37:19.445Z,19.17
2023-03-22T12:39:53.914Z,15.50
2023-03-22T12:42:50.351Z,18.77
2023-03-22T12:45:31.381Z,13.30
2023-03-22T12:48:10.511Z,15.40
2023-03-22T12:51:05.880Z,15.32
2023-03-22T12:53:42.654Z,12.77
2023-03-22T12:56:17.716Z,13.70
2023-03-22T12:58:51.959Z,13.93
2023-03-22T13:01:28.724Z,13.15
2023-03-22T13:03:57.788Z,15.98
2023-03-22T13:06:55.559Z,16.60
2023-03-22T13:09:45.798Z,13.25
2023-03-22T13:12:19.184Z,13.70
2023-03-22T13:14:52.131Z,13.68
2023-03-22T13:17:22.483Z,13.30
2023-03-22T13:20:00.184Z,14.23
2023-03-22T13:22:36.615Z,16.10
2023-03-22T13:25:13.469Z,13.50
2023-03-22T13:28:26.554Z,14.98
2023-03-22T13:30:58.902Z,17.15
2023-03-22T13:33:33.027Z,15.38
2023-03-22T13:36:07.353Z,17.00
2023-03-22T13:38:37.358Z,14.55
2023-03-22T13:41:17.232Z,16.73
2023-03-22T13:44:26.110Z,14.82
2023-03-22T13:46:57.267Z,14.98
2023-03-22T13:49:38.994Z,16.70
2023-03-22T13:52:09.215Z,14.35
2023-03-22T13:54:42.539Z,12.07
2023-03-22T13:57:37.729Z,16.98
2023-03-22T14:00:20.708Z,20.13
2023-03-22T14:02:50.106Z,20.00
2023-03-22T14:05:23.577Z,19.17
2023-03-22T14:07:53.872Z,14.73
2023-03-22T14:10:22.919Z,12.95
2023-03-22T14:12:59.452Z,16.83
2023-03-22T14:15:32.366Z,15.38
2023-03-22T14:18:08.348Z,15.68
2023-03-22T14:20:37.926Z,12.32
